createdAt,value
2018-12-12T00:02:18.996Z,31.30
2018-12-12T00:04:48.880Z,33.63
2018-12-12T00:07:19.637Z,23.80
2018-12-12T00:09:49.371Z,28.27
2018-12-12T00:12:18.660Z,28.77
2018-12-12T00:14:47.772Z,32.27
2018-12-12T00:17:18.602Z,35.00
2018-12-12T00:19:54.888Z,27.20
2018-12-12T00:22:26.910Z,33.90
2018-12-12T00:24:56.236Z,30.17
2018-12-12T00:27:25.356Z,30.70
2018-12-12T00:29:54.519Z,25.90
2018-12-12T00:32:23.805Z,27.37
2018-12-12T00:34:52.952Z,30.70
2018-12-12T00:37:22.573Z,22.77
2018-12-12T00:39:51.736Z,29.33
2018-12-12T00:42:20.980Z,29.20
2018-12-12T00:44:50.179Z,28.50
2018-12-12T00:47:19.352Z,27.20
2018-12-12T00:49:48.645Z,29.03
2018-12-12T00:52:17.911Z,31.00
2018-12-12T00:54:47.347Z,25.60
2018-12-12T00:57:17.028Z,35.97
2018-12-12T00:59:46.137Z,25.07
2018-12-12T01:02:15.466Z,24.27
2018-12-12T01:04:44.820Z,22.73
2018-12-12T01:07:13.951Z,30.27
2018-12-12T01:09:43.144Z,20.00
2018-12-12T01:12:12.660Z,20.83
2018-12-12T01:14:41.884Z,27.23
2018-12-12T01:17:11.151Z,20.20
2018-12-12T01:19:40.388Z,19.70
2018-12-12T01:22:09.823Z,19.67
2018-12-12T01:24:39.168Z,17.63
2018-12-12T01:27:08.435Z,23.87
2018-12-12T01:29:38.043Z,15.88
2018-12-12T01:32:07.577Z,22.33
2018-12-12T01:34:36.886Z,17.10
2018-12-12T01:37:06.406Z,18.07
2018-12-12T01:39:35.635Z,20.60
2018-12-12T01:42:05.396Z,19.73
2018-12-12T01:44:34.541Z,25.47
2018-12-12T01:47:03.816Z,18.67
2018-12-12T01:49:33.943Z,17.03
2018-12-12T01:52:03.152Z,23.07
2018-12-12T01:54:32.481Z,15.07
2018-12-12T01:57:01.678Z,17.80
2018-12-12T01:59:31.018Z,19.97
2018-12-12T02:02:00.165Z,14.87
2018-12-12T02:04:29.488Z,22.17
2018-12-12T02:06:58.632Z,18.40
2018-12-12T02:09:27.824Z,15.70
2018-12-12T02:11:56.977Z,18.57
2018-12-12T02:14:26.189Z,15.67
2018-12-12T02:16:55.401Z,15.77
2018-12-12T02:19:24.803Z,17.53
2018-12-12T02:21:53.920Z,12.10
2018-12-12T02:24:23.508Z,12.23
2018-12-12T02:26:52.691Z,14.40
2018-12-12T02:29:22.051Z,15.33
2018-12-12T02:31:51.585Z,16.43
2018-12-12T02:34:20.777Z,15.27
2018-12-12T02:36:50.204Z,12.63
2018-12-12T02:39:19.469Z,15.03
2018-12-12T02:41:48.719Z,15.68
2018-12-12T02:44:17.900Z,18.33
2018-12-12T02:46:47.174Z,14.37
2018-12-12T02:49:16.381Z,17.00
2018-12-12T02:51:45.571Z,14.30
2018-12-12T02:54:14.823Z,15.60
2018-12-12T02:56:43.946Z,19.53
2018-12-12T02:59:13.168Z,15.57
2018-12-12T03:01:42.701Z,12.27
2018-12-12T03:04:11.921Z,10.30
2018-12-12T03:06:41.232Z,14.35
2018-12-12T03:09:10.560Z,16.27
2018-12-12T03:11:39.796Z,23.70
2018-12-12T03:14:09.101Z,21.30
2018-12-12T03:16:38.205Z,19.00
2018-12-12T03:19:07.449Z,21.20
2018-12-12T03:21:36.720Z,19.33
2018-12-12T03:24:06.818Z,14.63
2018-12-12T03:26:36.644Z,15.07
2018-12-12T03:29:05.955Z,21.53
2018-12-12T03:31:35.103Z,20.13
2018-12-12T03:34:04.487Z,14.47
2018-12-12T03:36:33.876Z,15.60
2018-12-12T03:39:06.972Z,16.37
2018-12-12T03:41:36.288Z,16.97
2018-12-12T03:44:05.548Z,13.43
2018-12-12T03:46:34.668Z,16.77
2018-12-12T03:49:03.809Z,22.30
2018-12-12T03:51:33.052Z,17.77
2018-12-12T03:54:02.490Z,20.60
2018-12-12T03:56:32.174Z,15.83
2018-12-12T03:59:01.504Z,22.90
2018-12-12T04:01:30.669Z,19.40
2018-12-12T04:03:59.840Z,19.50
2018-12-12T04:06:29.047Z,12.13
2018-12-12T04:08:58.228Z,15.53
2018-12-12T04:11:27.361Z,17.70
2018-12-12T04:13:56.599Z,25.03
2018-12-12T04:16:25.934Z,15.20
2018-12-12T04:18:55.336Z,16.60
2018-12-12T04:21:24.547Z,14.43
2018-12-12T04:23:53.740Z,13.73
2018-12-12T04:26:23.273Z,15.57
2018-12-12T04:28:52.421Z,27.93
2018-12-12T04:31:21.553Z,17.03
2018-12-12T04:33:50.680Z,18.30
2018-12-12T04:36:20.466Z,17.80
2018-12-12T04:38:49.680Z,20.03
2018-12-12T04:41:19.435Z,17.23
2018-12-12T04:43:55.360Z,17.00
2018-12-12T04:46:25.233Z,20.52
2018-12-12T04:48:55.077Z,18.80
2018-12-12T04:51:24.269Z,18.00
2018-12-12T04:53:53.528Z,21.23
2018-12-12T04:56:22.868Z,21.27
2018-12-12T04:58:52.844Z,20.00
2018-12-12T05:01:21.969Z,18.97
2018-12-12T05:03:51.628Z,21.87
2018-12-12T05:06:20.880Z,24.40
2018-12-12T05:08:50.231Z,26.10
2018-12-12T05:11:19.356Z,23.17
2018-12-12T05:13:49.280Z,23.20
2018-12-12T05:16:18.385Z,22.70
2018-12-12T05:18:47.503Z,19.47
2018-12-12T05:21:16.636Z,23.33
2018-12-12T05:23:46.335Z,18.90
2018-12-12T05:26:15.561Z,26.80
2018-12-12T05:28:44.928Z,31.13
2018-12-12T05:31:14.048Z,31.80
2018-12-12T05:33:43.156Z,23.83
2018-12-12T05:36:12.285Z,27.63
2018-12-12T05:38:41.912Z,25.73
2018-12-12T05:41:11.021Z,24.37
2018-12-12T05:43:40.484Z,28.50
2018-12-12T05:46:09.633Z,26.53
2018-12-12T05:48:39.310Z,23.13
2018-12-12T05:51:08.772Z,28.30
2018-12-12T05:53:38.319Z,26.27
2018-12-12T05:56:13.904Z,31.97
2018-12-12T05:58:39.064Z,36.10
2018-12-12T06:01:08.440Z,30.48
2018-12-12T06:03:37.556Z,30.00
2018-12-12T06:06:06.920Z,33.03
2018-12-12T06:08:36.031Z,30.87
2018-12-12T06:11:05.602Z,24.80
2018-12-12T06:13:34.729Z,39.78
2018-12-12T06:16:04.250Z,33.97
2018-12-12T06:18:33.440Z,24.00
2018-12-12T06:21:03.128Z,28.25
2018-12-12T06:23:32.267Z,31.52
2018-12-12T06:26:01.388Z,33.90
2018-12-12T06:28:31.118Z,25.67
2018-12-12T06:31:00.268Z,28.17
2018-12-12T06:33:30.164Z,27.37
2018-12-12T06:35:59.292Z,27.90
2018-12-12T06:38:29.161Z,21.30
2018-12-12T06:40:58.304Z,27.40
2018-12-12T06:43:28.158Z,24.37
2018-12-12T06:45:57.464Z,23.83
2018-12-12T06:48:27.032Z,25.33
2018-12-12T06:50:56.156Z,27.53
2018-12-12T06:53:25.420Z,21.67
2018-12-12T06:55:54.600Z,21.97
2018-12-12T06:58:24.477Z,21.13
2018-12-12T07:00:53.639Z,24.53
2018-12-12T07:03:23.216Z,21.20
2018-12-12T07:05:52.439Z,24.45
2018-12-12T07:08:21.809Z,26.45
2018-12-12T07:10:50.929Z,17.57
2018-12-12T07:13:20.124Z,19.33
2018-12-12T07:15:49.892Z,21.40
2018-12-12T07:18:19.004Z,26.83
2018-12-12T07:20:48.113Z,27.93
2018-12-12T07:23:17.237Z,19.80
2018-12-12T07:25:47.334Z,20.53
2018-12-12T07:28:16.500Z,24.07
2018-12-12T07:30:45.629Z,28.30
2018-12-12T07:33:14.823Z,19.55
2018-12-12T07:35:44.064Z,20.77
2018-12-12T07:38:13.254Z,25.27
2018-12-12T07:40:42.980Z,18.03
2018-12-12T07:43:12.789Z,29.17
2018-12-12T07:45:41.992Z,27.77
2018-12-12T07:48:11.104Z,25.43
2018-12-12T07:50:40.652Z,22.50
2018-12-12T07:53:09.776Z,27.75
2018-12-12T07:55:39.356Z,29.23
2018-12-12T07:58:08.609Z,28.40
2018-12-12T08:00:38.276Z,45.00
2018-12-12T08:03:07.564Z,32.87
2018-12-12T08:05:36.755Z,94.10
2018-12-12T08:08:06.319Z,58.63
2018-12-12T08:10:35.592Z,33.30
2018-12-12T08:13:04.900Z,22.77
2018-12-12T08:15:34.658Z,23.20
2018-12-12T08:18:04.105Z,22.40
2018-12-12T08:20:33.791Z,25.67
2018-12-12T08:23:03.266Z,24.93
2018-12-12T08:25:32.844Z,31.13
2018-12-12T08:28:02.026Z,29.97
2018-12-12T08:30:32.895Z,22.53
2018-12-12T08:33:02.100Z,21.53
2018-12-12T08:35:31.241Z,30.87
2018-12-12T08:38:00.436Z,31.67
2018-12-12T08:40:29.569Z,33.43
2018-12-12T08:42:58.677Z,33.37
2018-12-12T08:45:27.892Z,37.53
2018-12-12T08:47:57.768Z,29.80
2018-12-12T08:50:26.969Z,36.70
2018-12-12T08:52:56.102Z,27.77
2018-12-12T08:55:25.645Z,28.43
2018-12-12T08:57:54.843Z,37.10
2018-12-12T09:00:23.988Z,24.03
2018-12-12T09:02:53.283Z,24.40
2018-12-12T09:05:22.828Z,37.53
2018-12-12T09:07:51.960Z,26.13
2018-12-12T09:10:21.179Z,29.10
2018-12-12T09:12:50.300Z,20.10
2018-12-12T09:15:19.424Z,28.43
2018-12-12T09:17:48.622Z,26.23
2018-12-12T09:20:18.404Z,20.63
2018-12-12T09:22:47.508Z,25.20
2018-12-12T09:25:16.696Z,24.10
2018-12-12T09:27:46.439Z,25.40
2018-12-12T09:30:16.216Z,23.80
2018-12-12T09:32:45.436Z,26.10
2018-12-12T09:35:14.729Z,31.13
2018-12-12T09:37:43.856Z,29.73
2018-12-12T09:40:13.085Z,27.90
2018-12-12T09:42:42.211Z,24.67
2018-12-12T09:45:11.356Z,27.73
2018-12-12T09:47:40.640Z,26.80
2018-12-12T09:50:09.921Z,31.63
2018-12-12T09:52:39.032Z,23.03
2018-12-12T09:55:08.323Z,27.83
2018-12-12T09:57:37.433Z,24.70
2018-12-12T10:00:06.763Z,26.67
2018-12-12T10:02:35.871Z,24.33
2018-12-12T10:05:06.161Z,22.77
2018-12-12T10:07:35.396Z,25.50
2018-12-12T10:10:04.725Z,27.83
2018-12-12T10:12:33.872Z,29.70
2018-12-12T10:15:03.007Z,31.57
2018-12-12T10:17:32.624Z,30.90
2018-12-12T10:20:02.260Z,36.30
2018-12-12T10:22:31.440Z,30.93
2018-12-12T10:25:00.707Z,27.87
2018-12-12T10:27:29.855Z,28.37
2018-12-12T10:29:58.984Z,30.70
2018-12-12T10:32:28.156Z,30.23
2018-12-12T10:34:57.327Z,27.53
2018-12-12T10:37:26.432Z,38.40
2018-12-12T10:39:55.627Z,32.07
2018-12-12T10:42:24.724Z,31.47
2018-12-12T10:44:54.137Z,38.80
2018-12-12T10:47:23.353Z,34.60
2018-12-12T10:49:52.477Z,34.83
2018-12-12T10:52:21.595Z,26.17
2018-12-12T10:54:51.493Z,37.20
2018-12-12T10:57:21.399Z,23.43
2018-12-12T10:59:51.301Z,31.00
2018-12-12T11:02:25.809Z,32.53
2018-12-12T11:04:55.093Z,34.07
2018-12-12T11:07:24.383Z,29.00
2018-12-12T11:09:53.498Z,36.40
2018-12-12T11:12:22.702Z,32.73
2018-12-12T11:14:52.444Z,37.13
2018-12-12T11:17:21.729Z,33.27
2018-12-12T11:19:50.849Z,34.07
2018-12-12T11:22:19.963Z,28.90
2018-12-12T11:24:49.096Z,26.27
2018-12-12T11:27:18.200Z,23.37
2018-12-12T11:29:47.332Z,23.37
2018-12-12T11:32:16.864Z,20.40
2018-12-12T11:34:46.085Z,19.90
2018-12-12T11:37:15.236Z,18.80
2018-12-12T11:39:44.401Z,17.30
2018-12-12T11:42:13.941Z,25.23
2018-12-12T11:44:43.139Z,15.87
2018-12-12T11:47:12.281Z,20.43
2018-12-12T11:49:41.404Z,20.90
2018-12-12T11:52:11.328Z,16.17
2018-12-12T11:54:40.596Z,19.13
2018-12-12T11:57:10.896Z,17.50
2018-12-12T11:59:40.000Z,15.00
2018-12-12T12:02:09.117Z,10.10
2018-12-12T12:04:38.485Z,15.10
2018-12-12T12:07:08.480Z,15.30
2018-12-12T12:09:37.612Z,15.30
2018-12-12T12:12:06.756Z,16.00
2018-12-12T12:14:35.892Z,16.53
2018-12-12T12:17:05.028Z,16.40
2018-12-12T12:19:34.230Z,10.27
2018-12-12T12:22:03.328Z,17.00
2018-12-12T12:24:32.464Z,14.37
2018-12-12T12:27:01.627Z,17.77
2018-12-12T12:29:30.916Z,15.27
2018-12-12T12:32:00.078Z,17.80
2018-12-12T12:34:29.316Z,13.07
2018-12-12T12:36:58.524Z,12.87
2018-12-12T12:39:27.974Z,15.97
2018-12-12T12:41:57.084Z,15.23
2018-12-12T12:44:26.196Z,13.43
2018-12-12T12:46:55.388Z,19.10
2018-12-12T12:49:24.515Z,17.27
2018-12-12T12:51:53.707Z,19.27
2018-12-12T12:54:22.804Z,21.13
2018-12-12T12:56:51.937Z,15.77
2018-12-12T12:59:21.072Z,17.10
2018-12-12T13:01:50.865Z,15.67
2018-12-12T13:04:20.037Z,21.83
2018-12-12T13:06:49.945Z,15.77
2018-12-12T13:09:19.044Z,13.67
2018-12-12T13:11:48.225Z,13.97
2018-12-12T13:14:17.417Z,15.87
2018-12-12T13:16:46.600Z,18.60
2018-12-12T13:19:15.753Z,16.00
2018-12-12T13:21:44.860Z,19.40
2018-12-12T13:24:14.139Z,16.47
2018-12-12T13:26:43.428Z,17.23
2018-12-12T13:29:12.557Z,15.30
2018-12-12T13:31:42.307Z,15.10
2018-12-12T13:34:16.149Z,15.40
2018-12-12T13:36:43.093Z,18.67
2018-12-12T13:39:12.192Z,17.20
2018-12-12T13:41:41.315Z,18.50
2018-12-12T13:44:10.987Z,15.40
2018-12-12T13:46:40.308Z,16.73
2018-12-12T13:49:09.464Z,19.60
2018-12-12T13:51:38.788Z,24.47
2018-12-12T13:54:07.972Z,21.40
2018-12-12T13:56:37.216Z,21.90
2018-12-12T13:59:06.861Z,17.13
2018-12-12T14:01:35.990Z,18.97
2018-12-12T14:04:05.341Z,22.80
2018-12-12T14:06:34.539Z,26.03
2018-12-12T14:09:05.465Z,25.10
2018-12-12T14:11:35.024Z,15.23
2018-12-12T14:14:04.350Z,17.67
2018-12-12T14:16:33.576Z,17.73
2018-12-12T14:19:02.680Z,18.30
2018-12-12T14:21:32.080Z,20.50
2018-12-12T14:24:01.216Z,18.47
2018-12-12T14:26:30.324Z,18.27
2018-12-12T14:28:59.452Z,23.80
2018-12-12T14:31:28.568Z,17.30
2018-12-12T14:33:57.692Z,19.47
2018-12-12T14:36:26.897Z,21.10
2018-12-12T14:38:56.045Z,19.30
2018-12-12T14:41:25.663Z,15.03
2018-12-12T14:43:55.898Z,15.67
2018-12-12T14:46:25.496Z,18.77
2018-12-12T14:48:54.700Z,20.23
2018-12-12T14:51:23.836Z,17.43
2018-12-12T14:53:52.948Z,15.40
2018-12-12T14:56:22.700Z,15.13
2018-12-12T14:58:52.440Z,16.50
2018-12-12T15:01:22.085Z,18.93
2018-12-12T15:03:51.216Z,15.63
2018-12-12T15:06:20.729Z,17.37
2018-12-12T15:08:49.925Z,17.00
2018-12-12T15:11:19.238Z,15.10
2018-12-12T15:13:48.387Z,15.30
2018-12-12T15:16:18.198Z,17.00
2018-12-12T15:18:47.384Z,16.03
2018-12-12T15:21:16.652Z,23.27
2018-12-12T15:23:45.785Z,17.00
2018-12-12T15:26:14.980Z,16.13
2018-12-12T15:28:44.197Z,18.40
2018-12-12T15:31:13.502Z,21.63
2018-12-12T15:33:49.188Z,23.60
2018-12-12T15:36:18.310Z,18.80
2018-12-12T15:38:47.436Z,20.70
2018-12-12T15:41:16.645Z,20.97
2018-12-12T15:43:45.844Z,17.87
2018-12-12T15:46:14.999Z,18.63
2018-12-12T15:48:44.116Z,24.27
2018-12-12T15:51:13.992Z,20.10
2018-12-12T15:53:43.112Z,22.13
2018-12-12T15:56:12.498Z,22.67
2018-12-12T15:58:41.803Z,23.60
2018-12-12T16:01:11.030Z,22.57
2018-12-12T16:03:40.941Z,24.83
2018-12-12T16:06:10.051Z,21.33
2018-12-12T16:08:39.180Z,20.37
2018-12-12T16:11:08.673Z,23.07
2018-12-12T16:13:39.812Z,23.90
2018-12-12T16:16:12.627Z,23.30
2018-12-12T16:18:41.814Z,31.47
2018-12-12T16:21:11.928Z,27.93
2018-12-12T16:23:41.121Z,24.00
2018-12-12T16:26:11.012Z,23.60
2018-12-12T16:28:40.392Z,27.70
2018-12-12T16:31:09.857Z,28.60
2018-12-12T16:33:38.992Z,26.50
2018-12-12T16:36:08.192Z,25.30
2018-12-12T16:38:37.328Z,29.87
2018-12-12T16:41:06.532Z,23.20
2018-12-12T16:43:36.063Z,24.50
2018-12-12T16:46:05.213Z,24.93
2018-12-12T16:48:34.396Z,31.67
2018-12-12T16:51:04.397Z,22.90
2018-12-12T16:53:33.621Z,29.48
2018-12-12T16:56:02.885Z,22.33
2018-12-12T16:58:32.131Z,26.63
2018-12-12T17:01:02.103Z,25.57
2018-12-12T17:03:31.255Z,24.70
2018-12-12T17:06:00.476Z,25.60
2018-12-12T17:08:29.741Z,21.83
2018-12-12T17:10:59.007Z,29.53
2018-12-12T17:13:28.197Z,25.03
2018-12-12T17:15:57.695Z,27.57
2018-12-12T17:18:26.959Z,20.17
2018-12-12T17:20:56.783Z,25.43
2018-12-12T17:23:27.068Z,32.33
2018-12-12T17:25:56.281Z,22.50
2018-12-12T17:28:25.621Z,25.60
2018-12-12T17:30:55.337Z,25.40
2018-12-12T17:33:27.961Z,24.70
2018-12-12T17:35:57.169Z,28.93
2018-12-12T17:38:26.411Z,27.10
2018-12-12T17:40:56.057Z,26.03
2018-12-12T17:43:26.106Z,25.13
2018-12-12T17:45:55.332Z,23.43
2018-12-12T17:48:24.514Z,17.87
2018-12-12T17:50:54.078Z,22.07
2018-12-12T17:53:23.292Z,22.73
2018-12-12T17:55:52.411Z,22.33
2018-12-12T17:58:22.059Z,20.30
2018-12-12T18:00:51.276Z,13.70
2018-12-12T18:03:20.396Z,15.90
2018-12-12T18:05:49.508Z,15.10
2018-12-12T18:08:18.640Z,17.80
2018-12-12T18:10:47.748Z,18.13
2018-12-12T18:13:17.329Z,15.03
2018-12-12T18:15:46.457Z,15.47
2018-12-12T18:18:15.731Z,22.57
2018-12-12T18:20:44.868Z,13.17
2018-12-12T18:23:14.000Z,14.40
2018-12-12T18:25:43.188Z,16.17
2018-12-12T18:28:12.776Z,10.53
2018-12-12T18:30:41.959Z,11.37
2018-12-12T18:33:11.160Z,12.30
2018-12-12T18:35:40.305Z,12.47
2018-12-12T18:38:09.531Z,10.73
2018-12-12T18:40:39.272Z,11.73
2018-12-12T18:43:08.440Z,9.17
2018-12-12T18:45:38.297Z,11.17
2018-12-12T18:48:07.537Z,11.47
2018-12-12T18:50:36.652Z,8.30
2018-12-12T18:53:11.907Z,12.83
2018-12-12T18:55:41.164Z,11.10
2018-12-12T18:58:10.377Z,11.73
2018-12-12T19:00:39.595Z,9.87
2018-12-12T19:03:09.255Z,8.77
2018-12-12T19:05:38.391Z,10.10
2018-12-12T19:08:07.556Z,10.03
2018-12-12T19:10:36.693Z,8.93
2018-12-12T19:13:06.273Z,6.63
2018-12-12T19:15:35.580Z,8.17
2018-12-12T19:18:05.443Z,12.93
2018-12-12T19:20:35.232Z,8.60
2018-12-12T19:23:04.568Z,9.60
2018-12-12T19:25:33.777Z,10.83
2018-12-12T19:28:02.946Z,16.53
2018-12-12T19:30:32.077Z,7.17
2018-12-12T19:33:01.207Z,8.47
2018-12-12T19:35:34.789Z,9.13
2018-12-12T19:38:01.637Z,8.80
2018-12-12T19:40:30.766Z,10.97
2018-12-12T19:43:00.496Z,7.17
2018-12-12T19:45:29.617Z,7.10
2018-12-12T19:47:58.832Z,7.13
2018-12-12T19:50:28.024Z,8.23
2018-12-12T19:52:57.108Z,6.60
2018-12-12T19:55:26.240Z,8.30
2018-12-12T19:57:55.504Z,9.77
2018-12-12T20:00:24.849Z,9.83
2018-12-12T20:02:54.159Z,7.93
2018-12-12T20:05:23.521Z,6.93
2018-12-12T20:07:53.172Z,6.30
2018-12-12T20:10:22.469Z,4.53
2018-12-12T20:12:52.092Z,8.07
2018-12-12T20:15:26.560Z,6.20
2018-12-12T20:17:55.705Z,10.77
2018-12-12T20:20:25.153Z,8.40
2018-12-12T20:22:54.433Z,10.10
2018-12-12T20:25:24.463Z,7.57
2018-12-12T20:27:54.002Z,9.30
2018-12-12T20:30:23.312Z,7.63
2018-12-12T20:32:52.508Z,7.90
2018-12-12T20:35:21.623Z,7.57
2018-12-12T20:37:50.750Z,7.55
2018-12-12T20:40:20.249Z,5.20
2018-12-12T20:42:49.496Z,7.87
2018-12-12T20:45:18.643Z,6.90
2018-12-12T20:47:47.764Z,5.70
2018-12-12T20:50:16.896Z,6.37
2018-12-12T20:52:46.009Z,6.57
2018-12-12T20:55:15.805Z,9.37
2018-12-12T20:57:51.534Z,8.87
2018-12-12T21:00:20.728Z,6.73
2018-12-12T21:02:50.504Z,6.30
2018-12-12T21:05:19.625Z,8.17
2018-12-12T21:07:49.384Z,9.07
2018-12-12T21:10:18.737Z,5.30
2018-12-12T21:12:47.920Z,5.67
2018-12-12T21:15:17.036Z,7.30
2018-12-12T21:17:46.145Z,5.83
2018-12-12T21:20:15.270Z,10.07
2018-12-12T21:22:44.999Z,7.47
2018-12-12T21:25:14.199Z,6.77
2018-12-12T21:27:43.384Z,7.33
2018-12-12T21:30:17.198Z,9.00
2018-12-12T21:32:43.703Z,8.03
2018-12-12T21:35:12.931Z,7.30
2018-12-12T21:37:42.408Z,8.30
2018-12-12T21:40:11.700Z,12.50
2018-12-12T21:42:41.292Z,8.00
2018-12-12T21:45:10.556Z,9.60
2018-12-12T21:47:40.144Z,7.73
2018-12-12T21:50:10.231Z,10.57
2018-12-12T21:52:39.355Z,6.47
2018-12-12T21:55:08.937Z,9.60
2018-12-12T21:57:38.355Z,7.90
2018-12-12T22:00:09.959Z,15.97
2018-12-12T22:02:39.056Z,9.00
2018-12-12T22:05:08.532Z,11.10
2018-12-12T22:07:37.645Z,9.10
2018-12-12T22:10:07.372Z,10.15
2018-12-12T22:12:36.631Z,9.00
2018-12-12T22:15:07.776Z,7.47
2018-12-12T22:17:36.904Z,8.30
2018-12-12T22:20:06.738Z,9.30
2018-12-12T22:22:35.919Z,11.63
2018-12-12T22:25:05.684Z,12.18
2018-12-12T22:27:34.843Z,11.20
2018-12-12T22:30:04.230Z,7.35
2018-12-12T22:32:33.461Z,8.33
2018-12-12T22:35:02.948Z,11.30
2018-12-12T22:37:32.092Z,10.85
2018-12-12T22:40:01.239Z,7.97
2018-12-12T22:42:30.377Z,8.28
2018-12-12T22:44:59.516Z,10.48
2018-12-12T22:47:29.171Z,10.40
2018-12-12T22:49:58.346Z,8.65
2018-12-12T22:52:27.628Z,9.68
2018-12-12T22:54:56.817Z,10.40
2018-12-12T22:57:25.985Z,12.07
2018-12-12T22:59:55.105Z,14.20
2018-12-12T23:02:24.404Z,12.47
2018-12-12T23:04:53.693Z,10.85
2018-12-12T23:07:22.832Z,10.72
2018-12-12T23:09:52.345Z,9.98
2018-12-12T23:12:22.329Z,9.90
2018-12-12T23:14:51.464Z,10.18
2018-12-12T23:17:20.601Z,10.45
2018-12-12T23:19:49.728Z,11.60
2018-12-12T23:22:18.856Z,11.33
2018-12-12T23:24:48.640Z,11.22
2018-12-12T23:27:17.798Z,14.25
2018-12-12T23:29:46.928Z,12.47
2018-12-12T23:32:16.700Z,10.70
2018-12-12T23:34:45.856Z,11.08
2018-12-12T23:37:14.996Z,11.90
2018-12-12T23:39:44.197Z,11.73
2018-12-12T23:42:13.400Z,11.22
2018-12-12T23:44:42.548Z,13.15
2018-12-12T23:47:12.079Z,11.60
2018-12-12T23:49:41.324Z,12.15
2018-12-12T23:52:10.540Z,12.53
2018-12-12T23:54:40.260Z,13.90
2018-12-12T23:57:09.621Z,11.30
2018-12-12T23:59:38.759Z,15.95
